Morongo Valley, CA (92256)

10:43 AM PDT on March 30, 2020 (GMT -0700)
Twentynine Palms Expeditionary Air Field | | Change Station

Elev 2054 ft 34.28 °N, 116.17 °W | Updated 47 minutes ago

Clear
Clear
60 °F
Feels Like 60 °F
N
0
Wind Variable Wind from North

Today
High -- | Low -- °F
--% Chance of Precip.
Yesterday
High -- | Low -- °F
Precip. -- in
Pressure 30.25 in
Visibility 10.0 miles
Clouds Clear
Dew Point 33 °F
Humidity 36%
Rainfall 0.00 in
Snow Depth Not available.
6:35 AM 7:06 PM
Waxing Crescent, 33% visible
METAR KNXP 301656Z AUTO 00000KT 10SM CLR 16/01 A3031 RMK AO2 SLP242 T01560006
Pressure 30.25 in
Visibility 10.0 miles
Clouds Clear
Dew Point 33 °F
Humidity 36%
Rainfall 0.00 in
Snow Depth Not available.
6:35 AM 7:06 PM
Waxing Crescent, 33% visible
METAR KNXP 301656Z AUTO 00000KT 10SM CLR 16/01 A3031 RMK AO2 SLP242 T01560006

Get Severe Weather Alerts

Thanks for signing up!

Be on the lookout for a verification email in your inbox.

You'll start receiving the daily forecast at 6 AM.

×

10-Day Weather Forecast

Almanac

Astronomy

Mar. 30, 2020 Rise Set
Actual Time
Civil Twilight
Nautical Twilight
Astronomical Twilight
Moon
Length of Visible Light
Length of Day
Tomorrow will be .
, % of the Moon is Illuminated

Today's Extremes

State Highs State Lows

Community

WunderPhotos

Category 6

Welcome to Category 6. This is the collective home for Weather Underground's featured writeups by Dr. Jeff Masters (right), Bob Henson (left), Chris Burt, and other regular contributors.

Nearby

Air Quality

  Air Quality AQ Index Pollutant
Not available.

Snow Depth

Station Depth Elevation

Earthquake Activity

City Distance Mag. Time & Date
Minimum magnitude displayed is 2.5.

Coastal Water Temperatures

Place Temperature

Stations

Nearby Weather Stations

Station Location Temp. Windchill Dew Point Humidity Wind Precip. Elev Updated Type
                   

Watches & Warnings

There are currently no watches in effect.